Airfield :
LOGIN :

Register | Disclaimer

   EN    FR    IT 

 










Legend :    VFR   Marginal VFR   IFR   Intensive IFR   Very Intensive IFR
Visi :
Ceiling :
>= 8 km
>= 3000ft
5 to 8 km
1000 to 3000 ft
1500m to 5 km
500 to 1000 ft
800 to 1500m
200 to 500 ft
< 800m
< 200 ft
Symbols :   Thunderstorms  Fog  Heavy snow  Heavy precipitations  Wind > 20 kt
SIGMETs :     Misc.  Thunderstorms  Icing  Turbulence  Mountain Waves  Volcanic Ashes







- Airport Elevation : 1084 ft
- IATA code : EPL
- Download approach charts


LFSG - Épinal-Mirecourt

CURRENT METAR :
  • 201830Z AUTO 27012KT 9999 BKN015 BKN021 OVC045 08/06 Q0999

EXPIRED METARs :
  • 201800Z AUTO 24013KT 9999 -RADZ BKN016 BKN021 BKN045 06/05 Q0999
  • 201730Z AUTO 23008KT 9999 -RA BKN010/// OVC017/// ///TCU 05/04 Q0999
  • 201700Z AUTO 22014KT 6000 -RA SCT010 BKN016 OVC022 05/04 Q0999
  • 201630Z AUTO 22016KT 9999 -DZ BKN013 OVC019 05/03 Q0998
  • 201600Z AUTO 21020KT 8000 SCT009 BKN017 BKN023 04/03 Q0998

TAF N/A
No reported NOTAMs for that airfield.
3 SIGMETs reported for the Reims FIR (LFEE) :
 
Severe turbulence
LFEE SIGMET 7 VALID 202100/210100 LFPW
LFEE REIMS FIR/UIR SEV TURB FCST WI N4815 E00530 - N4830 E00530 - N4900 E00445 - N4930 E00600 - N4900 E00815 - N4730 E00730 - N4700 E00700 - N4815 E00530 FL180/290 MOV NE 20KT NC=
Severe turbulence
LFEE SIGMET 6 VALID 201700/202100 LFPW
LFEE REIMS FIR/UIR SEV TURB FCST WI N4815 E00515 - N4830 E00530 - N4900 E00445 - N4930 E00600 - N4900 E00815 - N4745 E00745 - N4815 E00515 FL180/310 STNR NC=
Severe turbulence
LFEE SIGMET 5 VALID 201700/202100 LFPW
LFEE REIMS FIR/UIR SEV TURB FCST WI N4745 E00645 - N4845 E00645 - N4845 E00730 - N4730 E00715 - N4745 E00645 SFC/FL080 STNR WKN=



MET'MAP, your aeronautical weather chart ! - Copyright ORBIFLY December 2007 - Disclaimer

ORBIFLY MET'MAP TEAM :

Programming & Development : Alexandra Zaïnal
Concept & Development : Baudouin d'Aumeries
Co-Development & Prog : Marc-Olivier Méhu
Technical & hardware support : Manuel Goepfert

Contact : metmap@orbifly.com




SOURCES & CREDITS :

   NOAA